< < Back
Terminal Aerodrome Forecast


Current Version              Previous Versions:   1  2  3  4  5  6  7  8  9  

Terminal Aerodrome Forecast

136
FTUS42 KILM 192300
TAFFLO
TAF
KFLO 192334Z 2000/2024 07005KT P6SM SCT100
      TEMPO 2009/2012 4SM BR SCT025
     FM201400 05012G20KT P6SM SCT040 SCT100 BKN250
     FM202000 05010KT P6SM VCSH SCT040 BKN100=

Latest METAR

313
SAUS70 KWBC 200700 RRE
MTRFLO
METAR KFLO 200653Z AUTO 05009KT 10SM CLR 19/16 A3015 RMK AO2 SLP205
T01890156


USA.gov is the U.S. government's official web portal to all federal, state and local government web resources and services.